createdAt,value
2022-09-10T00:01:34.911Z,15.14
2022-09-10T00:04:03.812Z,15.00
2022-09-10T00:06:33.146Z,14.90
2022-09-10T00:09:02.416Z,14.85
2022-09-10T00:11:31.140Z,14.69
2022-09-10T00:14:03.635Z,14.52
2022-09-10T00:16:33.547Z,14.39
2022-09-10T00:19:02.255Z,14.44
2022-09-10T00:21:31.305Z,14.55
2022-09-10T00:23:59.777Z,14.80
2022-09-10T00:26:29.865Z,14.96
2022-09-10T00:29:00.059Z,15.04
2022-09-10T00:31:31.706Z,15.09
2022-09-10T00:34:02.570Z,15.31
2022-09-10T00:36:33.941Z,15.28
2022-09-10T00:39:03.639Z,15.23
2022-09-10T00:41:34.127Z,15.17
2022-09-10T00:44:03.713Z,15.42
2022-09-10T00:46:36.329Z,15.56
2022-09-10T00:49:11.402Z,15.44
2022-09-10T00:51:40.549Z,15.25
2022-09-10T00:54:09.096Z,15.14
2022-09-10T00:56:37.090Z,15.07
2022-09-10T00:59:06.206Z,15.05
2022-09-10T01:01:35.154Z,14.96
2022-09-10T01:04:06.147Z,14.80
2022-09-10T01:06:34.451Z,14.84
2022-09-10T01:09:03.057Z,14.95
2022-09-10T01:11:38.935Z,15.13
2022-09-10T01:14:22.205Z,15.36
2022-09-10T01:16:56.303Z,15.28
2022-09-10T01:19:48.564Z,15.21
2022-09-10T01:22:26.673Z,15.08
2022-09-10T01:24:58.263Z,15.06
2022-09-10T01:27:33.108Z,15.12
2022-09-10T01:30:06.117Z,14.95
2022-09-10T01:32:40.943Z,15.05
2022-09-10T01:35:15.740Z,15.05
2022-09-10T01:37:46.829Z,15.07
2022-09-10T01:40:17.136Z,14.87
2022-09-10T01:42:46.886Z,14.82
2022-09-10T01:45:16.619Z,14.86
2022-09-10T01:47:56.855Z,15.08
2022-09-10T01:50:30.167Z,14.99
2022-09-10T01:53:09.363Z,14.84
2022-09-10T01:55:44.518Z,14.83
2022-09-10T01:58:21.193Z,14.73
2022-09-10T02:00:59.098Z,14.65
2022-09-10T02:03:27.940Z,14.73
2022-09-10T02:05:57.673Z,14.85
2022-09-10T02:08:31.108Z,14.71
2022-09-10T02:11:00.836Z,14.76
2022-09-10T02:13:31.174Z,14.75
2022-09-10T02:15:59.670Z,14.88
2022-09-10T02:18:27.778Z,14.81
2022-09-10T02:20:57.947Z,14.93
2022-09-10T02:23:31.578Z,14.85
2022-09-10T02:25:59.716Z,14.71
2022-09-10T02:28:27.841Z,14.73
2022-09-10T02:30:57.218Z,14.75
2022-09-10T02:33:25.303Z,14.80
2022-09-10T02:35:54.019Z,14.78
2022-09-10T02:38:22.435Z,14.60
2022-09-10T02:40:50.474Z,14.59
2022-09-10T02:43:19.152Z,14.74
2022-09-10T02:45:47.191Z,14.76
2022-09-10T02:48:18.300Z,14.74
2022-09-10T02:50:46.538Z,14.66
2022-09-10T02:53:14.858Z,14.63
2022-09-10T02:55:46.240Z,14.66
2022-09-10T02:58:14.575Z,14.71
2022-09-10T03:00:42.779Z,14.58
2022-09-10T03:03:10.887Z,14.58
2022-09-10T03:05:41.667Z,14.45
2022-09-10T03:08:10.681Z,14.42
2022-09-10T03:10:39.514Z,14.33
2022-09-10T03:13:08.166Z,14.33
2022-09-10T03:15:36.095Z,14.34
2022-09-10T03:18:04.266Z,14.36
2022-09-10T03:20:32.926Z,14.24
2022-09-10T03:23:03.478Z,14.20
2022-09-10T03:25:31.573Z,14.18
2022-09-10T03:27:59.847Z,14.14
2022-09-10T03:30:27.800Z,14.12
2022-09-10T03:32:56.239Z,14.11
2022-09-10T03:35:24.216Z,14.08
2022-09-10T03:37:52.198Z,14.14
2022-09-10T03:40:21.604Z,14.20
2022-09-10T03:42:49.575Z,14.20
2022-09-10T03:45:17.606Z,14.18
2022-09-10T03:47:45.796Z,14.20
2022-09-10T03:50:13.768Z,14.21
2022-09-10T03:52:42.398Z,14.20
2022-09-10T03:55:11.305Z,14.22
2022-09-10T03:57:41.732Z,14.31
2022-09-10T04:00:11.941Z,14.39
2022-09-10T04:02:41.691Z,14.40
2022-09-10T04:05:10.195Z,14.25
2022-09-10T04:07:38.268Z,14.20
2022-09-10T04:10:08.060Z,14.14
2022-09-10T04:12:37.869Z,14.23
2022-09-10T04:15:09.560Z,14.32
2022-09-10T04:17:37.697Z,14.21
2022-09-10T04:20:06.473Z,14.26
2022-09-10T04:22:35.184Z,14.55
2022-09-10T04:25:03.215Z,14.39
2022-09-10T04:27:31.145Z,14.57
2022-09-10T04:29:59.156Z,14.56
2022-09-10T04:32:28.493Z,14.42
2022-09-10T04:34:56.560Z,14.49
2022-09-10T04:37:24.634Z,14.54
2022-09-10T04:39:52.953Z,14.39
2022-09-10T04:42:21.121Z,14.31
2022-09-10T04:44:49.168Z,14.35
2022-09-10T04:47:18.194Z,14.36
2022-09-10T04:49:47.565Z,14.31
2022-09-10T04:52:17.164Z,14.26
2022-09-10T04:54:45.493Z,14.33
2022-09-10T04:57:13.655Z,14.40
2022-09-10T04:59:41.644Z,14.34
2022-09-10T05:02:10.543Z,14.48
2022-09-10T05:04:39.574Z,14.51
2022-09-10T05:07:08.925Z,14.49
2022-09-10T05:09:36.876Z,14.62
2022-09-10T05:12:05.514Z,14.74
2022-09-10T05:14:33.927Z,14.88
2022-09-10T05:17:02.400Z,14.86
2022-09-10T05:19:30.450Z,14.88
2022-09-10T05:21:58.771Z,14.81
2022-09-10T05:24:28.500Z,14.99
2022-09-10T05:26:57.061Z,15.01
2022-09-10T05:29:24.963Z,15.08
2022-09-10T05:31:52.927Z,14.95
2022-09-10T05:34:21.272Z,14.85
2022-09-10T05:36:49.375Z,14.78
2022-09-10T05:39:17.629Z,14.88
2022-09-10T05:41:46.984Z,15.09
2022-09-10T05:44:15.239Z,15.00
2022-09-10T05:46:43.206Z,15.00
2022-09-10T05:49:14.192Z,15.01
2022-09-10T05:51:42.160Z,14.95
2022-09-10T05:54:11.602Z,14.96
2022-09-10T05:56:40.336Z,14.90
2022-09-10T05:59:10.669Z,14.84
2022-09-10T06:01:39.097Z,14.80
2022-09-10T06:04:07.322Z,14.76
2022-09-10T06:06:35.340Z,14.91
2022-09-10T06:09:03.484Z,14.78
2022-09-10T06:11:31.433Z,14.71
2022-09-10T06:13:59.360Z,14.56
2022-09-10T06:16:28.809Z,14.62
2022-09-10T06:18:57.399Z,14.66
2022-09-10T06:21:28.333Z,14.66
2022-09-10T06:23:56.606Z,14.67
2022-09-10T06:26:25.570Z,14.69
2022-09-10T06:28:55.289Z,14.65
2022-09-10T06:31:23.509Z,14.78
2022-09-10T06:33:53.145Z,14.80
2022-09-10T06:36:21.092Z,14.83
2022-09-10T06:38:49.543Z,14.84
2022-09-10T06:41:17.533Z,14.83
2022-09-10T06:43:46.791Z,14.90
2022-09-10T06:46:50.802Z,15.05
2022-09-10T06:49:07.258Z,14.96
2022-09-10T06:51:35.206Z,15.08
2022-09-10T06:54:03.291Z,14.98
2022-09-10T06:56:31.319Z,14.96
2022-09-10T06:59:02.185Z,15.02
2022-09-10T07:01:32.068Z,15.10
2022-09-10T07:04:01.104Z,15.27
2022-09-10T07:06:33.750Z,15.21
2022-09-10T07:09:01.749Z,15.23
2022-09-10T07:11:32.244Z,15.27
2022-09-10T07:14:01.544Z,15.34
2022-09-10T07:16:30.163Z,15.42
2022-09-10T07:18:59.683Z,15.42
2022-09-10T07:21:29.009Z,15.54
2022-09-10T07:24:01.366Z,15.68
2022-09-10T07:26:30.255Z,15.68
2022-09-10T07:28:59.127Z,15.85
2022-09-10T07:31:30.862Z,15.97
2022-09-10T07:33:59.443Z,15.81
2022-09-10T07:36:27.609Z,15.90
2022-09-10T07:38:57.629Z,16.07
2022-09-10T07:41:29.784Z,16.08
2022-09-10T07:44:00.374Z,16.13
2022-09-10T07:46:28.551Z,16.14
2022-09-10T07:48:57.996Z,16.16
2022-09-10T07:51:26.926Z,16.33
2022-09-10T07:53:55.731Z,16.40
2022-09-10T07:56:24.511Z,16.49
2022-09-10T07:58:57.478Z,16.76
2022-09-10T08:01:25.968Z,16.76
2022-09-10T08:03:58.666Z,16.90
2022-09-10T08:06:26.838Z,16.93
2022-09-10T08:08:55.185Z,16.99
2022-09-10T08:11:23.515Z,16.81
2022-09-10T08:13:54.647Z,16.66
2022-09-10T08:16:24.288Z,16.71
2022-09-10T08:18:53.061Z,16.67
2022-09-10T08:21:26.252Z,16.77
2022-09-10T08:23:55.506Z,16.78
2022-09-10T08:26:24.829Z,16.68
2022-09-10T08:28:55.945Z,16.66
2022-09-10T08:31:26.357Z,16.88
2022-09-10T08:33:55.255Z,17.00
2022-09-10T08:36:24.313Z,17.17
2022-09-10T08:38:55.214Z,17.06
2022-09-10T08:41:31.362Z,17.11
2022-09-10T08:44:04.135Z,17.14
2022-09-10T08:46:35.390Z,17.13
2022-09-10T08:49:09.591Z,17.10
2022-09-10T08:51:43.439Z,17.01
2022-09-10T08:54:15.340Z,17.07
2022-09-10T08:56:43.588Z,17.11
2022-09-10T08:59:18.853Z,17.22
2022-09-10T09:01:50.720Z,17.35
2022-09-10T09:04:30.453Z,17.22
2022-09-10T09:07:01.445Z,17.26
2022-09-10T09:09:29.487Z,17.33
2022-09-10T09:12:04.817Z,17.49
2022-09-10T09:14:46.260Z,17.67
2022-09-10T09:17:25.275Z,17.86
2022-09-10T09:19:59.799Z,18.03
2022-09-10T09:22:39.792Z,18.08
2022-09-10T09:25:11.310Z,17.87
2022-09-10T09:27:42.343Z,18.07
2022-09-10T09:30:18.714Z,18.36
2022-09-10T09:32:47.984Z,18.27
2022-09-10T09:35:25.479Z,17.71
2022-09-10T09:38:04.354Z,17.67
2022-09-10T09:40:38.475Z,17.47
2022-09-10T09:43:12.771Z,17.72
2022-09-10T09:45:44.083Z,17.66
2022-09-10T09:48:15.844Z,18.01
2022-09-10T09:50:49.031Z,17.79
2022-09-10T09:53:21.241Z,17.97
2022-09-10T09:55:52.072Z,18.24
2022-09-10T09:58:34.803Z,18.37
2022-09-10T10:01:16.577Z,18.30
2022-09-10T10:03:58.728Z,18.18
2022-09-10T10:06:28.230Z,18.26
2022-09-10T10:08:59.655Z,18.37
2022-09-10T10:11:42.372Z,18.57
2022-09-10T10:14:41.926Z,18.69
2022-09-10T10:17:31.444Z,18.76
2022-09-10T10:20:08.918Z,18.87
2022-09-10T10:22:40.882Z,19.12
2022-09-10T10:25:48.712Z,19.42
2022-09-10T10:28:21.561Z,19.41
2022-09-10T10:30:53.746Z,19.86
2022-09-10T10:33:27.881Z,19.59
2022-09-10T10:36:04.064Z,19.75
2022-09-10T10:38:33.182Z,20.19
2022-09-10T10:41:29.724Z,19.75
2022-09-10T10:44:09.757Z,20.54
2022-09-10T10:46:48.728Z,20.38
2022-09-10T10:49:23.010Z,20.44
2022-09-10T10:51:57.915Z,20.75
2022-09-10T10:54:37.676Z,20.96
2022-09-10T10:57:15.158Z,20.35
2022-09-10T10:59:53.128Z,21.03
2022-09-10T11:02:29.112Z,21.64
2022-09-10T11:05:01.545Z,21.47
2022-09-10T11:07:33.165Z,20.73
2022-09-10T11:10:04.155Z,21.10
2022-09-10T11:12:35.143Z,21.03
2022-09-10T11:15:14.983Z,21.72
2022-09-10T11:17:47.633Z,22.32
2022-09-10T11:20:35.037Z,22.64
2022-09-10T11:23:08.965Z,21.01
2022-09-10T11:25:40.870Z,21.24
2022-09-10T11:28:15.538Z,21.90
2022-09-10T11:30:48.130Z,22.66
2022-09-10T11:33:21.250Z,22.79
2022-09-10T11:35:55.656Z,22.37
2022-09-10T11:38:26.059Z,22.21
2022-09-10T11:41:08.598Z,23.23
2022-09-10T11:43:43.514Z,22.83
2022-09-10T11:46:14.667Z,21.65
2022-09-10T11:48:47.514Z,21.64
2022-09-10T11:51:22.518Z,20.96
2022-09-10T11:53:50.847Z,21.98
2022-09-10T11:56:31.422Z,22.09
2022-09-10T11:59:22.867Z,21.17
2022-09-10T12:02:11.349Z,20.99
2022-09-10T12:04:47.953Z,21.82
2022-09-10T12:07:27.080Z,21.59
2022-09-10T12:10:14.554Z,21.12
2022-09-10T12:13:12.617Z,20.90
2022-09-10T12:15:41.229Z,18.96
2022-09-10T12:18:16.631Z,20.06
2022-09-10T12:20:51.260Z,19.56
2022-09-10T12:23:28.711Z,18.77
2022-09-10T12:26:00.772Z,18.46
2022-09-10T12:29:05.309Z,19.74
2022-09-10T12:32:10.247Z,19.88
2022-09-10T12:34:39.197Z,20.25
2022-09-10T12:37:21.036Z,20.05
2022-09-10T12:39:51.008Z,20.11
2022-09-10T12:42:28.813Z,20.99
2022-09-10T12:44:57.225Z,21.66
2022-09-10T12:47:42.852Z,21.67
2022-09-10T12:50:46.066Z,21.69
2022-09-10T12:53:55.085Z,21.72
2022-09-10T12:56:49.040Z,21.65
2022-09-10T12:59:32.081Z,21.35
2022-09-10T13:02:00.518Z,21.31
2022-09-10T13:04:30.469Z,21.35
2022-09-10T13:07:00.380Z,21.27
2022-09-10T13:09:31.209Z,20.96
2022-09-10T13:12:04.310Z,20.98
2022-09-10T13:14:36.906Z,20.94
2022-09-10T13:17:05.625Z,20.61
2022-09-10T13:19:51.426Z,20.88
2022-09-10T13:22:34.152Z,20.83
2022-09-10T13:25:04.616Z,20.74
2022-09-10T13:27:39.378Z,20.56
2022-09-10T13:30:18.870Z,20.60
2022-09-10T13:32:52.278Z,20.47
2022-09-10T13:35:57.486Z,20.23
2022-09-10T13:38:48.667Z,19.77
2022-09-10T13:41:29.476Z,19.85
2022-09-10T13:44:13.419Z,19.84
2022-09-10T13:46:43.091Z,19.64
2022-09-10T13:49:16.717Z,19.49
2022-09-10T13:51:51.136Z,19.29
2022-09-10T13:54:31.429Z,19.93
2022-09-10T13:57:01.068Z,19.63
2022-09-10T13:59:33.453Z,19.67
2022-09-10T14:02:01.339Z,19.60
2022-09-10T14:04:32.034Z,19.88
2022-09-10T14:07:04.779Z,19.74
2022-09-10T14:09:33.140Z,20.04
2022-09-10T14:12:02.370Z,19.77
2022-09-10T14:14:36.299Z,20.21
2022-09-10T14:17:06.722Z,20.43
2022-09-10T14:19:38.727Z,20.28
2022-09-10T14:22:10.040Z,19.57
2022-09-10T14:24:48.113Z,19.59
2022-09-10T14:27:18.554Z,18.92
2022-09-10T14:29:47.866Z,19.20
2022-09-10T14:32:26.927Z,19.30
2022-09-10T14:34:55.034Z,19.85
2022-09-10T14:37:32.194Z,19.80
2022-09-10T14:40:07.939Z,19.61
2022-09-10T14:42:36.673Z,19.71
2022-09-10T14:45:06.830Z,20.21
2022-09-10T14:47:37.134Z,20.09
2022-09-10T14:50:28.377Z,20.43
2022-09-10T14:52:56.668Z,20.48
2022-09-10T14:55:25.466Z,20.49
2022-09-10T14:57:58.312Z,20.15
2022-09-10T15:00:30.504Z,20.37
2022-09-10T15:02:58.524Z,20.41
2022-09-10T15:05:34.324Z,20.60
2022-09-10T15:08:02.787Z,20.43
2022-09-10T15:10:30.731Z,20.38
2022-09-10T15:12:58.757Z,20.33
2022-09-10T15:15:29.870Z,20.43
2022-09-10T15:17:58.394Z,20.15
2022-09-10T15:20:28.111Z,20.21
2022-09-10T15:22:56.110Z,20.61
2022-09-10T15:25:33.881Z,21.17
2022-09-10T15:28:04.445Z,22.09
2022-09-10T15:30:36.078Z,22.96
2022-09-10T15:33:04.649Z,23.30
2022-09-10T15:35:32.724Z,24.03
2022-09-10T15:38:01.815Z,23.92
2022-09-10T15:40:35.987Z,24.31
2022-09-10T15:43:04.034Z,24.30
2022-09-10T15:45:34.753Z,25.22
2022-09-10T15:48:03.147Z,25.50
2022-09-10T15:50:31.400Z,25.60
2022-09-10T15:52:59.666Z,26.04
2022-09-10T15:55:29.071Z,25.89
2022-09-10T15:57:57.019Z,25.80
2022-09-10T16:00:25.202Z,25.80
2022-09-10T16:02:54.566Z,25.81
2022-09-10T16:05:22.818Z,25.01
2022-09-10T16:07:52.294Z,24.92
2022-09-10T16:10:20.413Z,25.16
2022-09-10T16:12:48.565Z,25.26
2022-09-10T16:15:16.773Z,25.91
2022-09-10T16:17:45.985Z,26.28
2022-09-10T16:20:24.596Z,25.48
2022-09-10T16:22:54.433Z,24.62
2022-09-10T16:25:23.449Z,23.96
2022-09-10T16:27:51.328Z,23.87
2022-09-10T16:30:19.235Z,24.04
2022-09-10T16:32:47.182Z,24.86
2022-09-10T16:35:16.770Z,24.37
2022-09-10T16:37:45.317Z,23.37
2022-09-10T16:40:16.113Z,22.81
2022-09-10T16:42:44.081Z,22.53
2022-09-10T16:45:12.192Z,22.07
2022-09-10T16:47:40.078Z,21.90
2022-09-10T16:50:08.717Z,21.66
2022-09-10T16:52:38.033Z,21.57
2022-09-10T16:55:07.125Z,21.73
2022-09-10T16:57:35.057Z,21.27
2022-09-10T17:00:05.906Z,21.08
2022-09-10T17:02:35.293Z,20.94
2022-09-10T17:05:03.247Z,20.70
2022-09-10T17:07:31.198Z,20.45
2022-09-10T17:10:01.163Z,20.59
2022-09-10T17:12:32.706Z,20.69
2022-09-10T17:15:00.670Z,20.86
2022-09-10T17:17:31.451Z,20.63
2022-09-10T17:19:59.435Z,19.93
2022-09-10T17:22:27.898Z,20.16
2022-09-10T17:24:56.195Z,20.19
2022-09-10T17:27:27.732Z,20.09
2022-09-10T17:30:03.172Z,20.21
2022-09-10T17:32:31.471Z,20.30
2022-09-10T17:34:59.610Z,20.14
2022-09-10T17:37:27.545Z,20.07
2022-09-10T17:39:55.470Z,19.90
2022-09-10T17:42:23.407Z,19.80
2022-09-10T17:44:52.750Z,19.57
2022-09-10T17:47:20.696Z,19.61
2022-09-10T17:49:48.721Z,19.66
2022-09-10T17:52:16.626Z,19.33
2022-09-10T17:54:44.542Z,19.25
2022-09-10T17:57:12.507Z,19.11
2022-09-10T17:59:40.745Z,19.19
2022-09-10T18:02:13.959Z,19.23
2022-09-10T18:04:42.003Z,19.26
2022-09-10T18:07:10.752Z,19.23
2022-09-10T18:09:38.887Z,19.11
2022-09-10T18:12:07.546Z,19.11
2022-09-10T18:14:36.193Z,19.21
2022-09-10T18:17:04.134Z,19.23
2022-09-10T18:19:34.468Z,19.19
2022-09-10T18:24:54.513Z,18.99
2022-09-10T18:27:22.519Z,18.87
2022-09-10T18:29:50.553Z,18.90
2022-09-10T18:32:18.444Z,18.72
2022-09-10T18:34:47.738Z,18.57
2022-09-10T18:37:15.698Z,18.35
2022-09-10T18:39:43.653Z,18.35
2022-09-10T18:42:11.589Z,18.31
2022-09-10T18:44:40.325Z,18.08
2022-09-10T18:47:27.810Z,18.08
2022-09-10T18:50:00.303Z,18.06
2022-09-10T18:52:29.129Z,17.87
2022-09-10T18:54:57.044Z,17.82
2022-09-10T18:57:24.957Z,18.10
2022-09-10T18:59:55.115Z,18.09
2022-09-10T19:02:23.185Z,18.19
2022-09-10T19:05:10.308Z,17.94
2022-09-10T19:07:40.533Z,17.75
2022-09-10T19:10:09.041Z,17.73
2022-09-10T19:12:36.970Z,17.97
2022-09-10T19:15:05.490Z,17.97
2022-09-10T19:17:33.448Z,17.72
2022-09-10T19:20:01.400Z,17.70
2022-09-10T19:22:29.474Z,17.69
2022-09-10T19:24:58.951Z,17.68
2022-09-10T19:27:27.155Z,17.61
2022-09-10T19:29:55.875Z,17.86
2022-09-10T19:32:23.789Z,17.74
2022-09-10T19:34:51.792Z,17.58
2022-09-10T19:37:20.842Z,17.33
2022-09-10T19:39:49.121Z,17.18
2022-09-10T19:42:18.862Z,17.10
2022-09-10T19:44:46.785Z,16.95
2022-09-10T19:47:14.665Z,16.88
2022-09-10T19:49:42.626Z,17.00
2022-09-10T19:52:12.890Z,17.38
2022-09-10T19:54:40.958Z,17.38
2022-09-10T19:57:08.866Z,17.37
2022-09-10T19:59:38.181Z,17.39
2022-09-10T20:02:06.176Z,17.33
2022-09-10T20:04:34.393Z,17.29
2022-09-10T20:07:02.423Z,17.16
2022-09-10T20:09:30.338Z,17.01
2022-09-10T20:11:58.273Z,17.19
2022-09-10T20:14:27.924Z,17.06
2022-09-10T20:16:57.562Z,17.05
2022-09-10T20:19:25.572Z,17.08
2022-09-10T20:21:53.541Z,17.00
2022-09-10T20:24:22.160Z,17.02
2022-09-10T20:26:50.064Z,16.84
2022-09-10T20:29:19.381Z,16.58
2022-09-10T20:31:48.642Z,16.77
2022-09-10T20:34:19.638Z,16.56
2022-09-10T20:36:48.495Z,16.21
2022-09-10T20:39:18.066Z,16.15
2022-09-10T20:41:46.800Z,16.19
2022-09-10T20:44:16.165Z,16.21
2022-09-10T20:46:44.393Z,16.29
2022-09-10T20:49:13.708Z,16.64
2022-09-10T20:51:43.662Z,16.13
2022-09-10T20:54:13.583Z,16.01
2022-09-10T20:56:41.660Z,15.87
2022-09-10T20:59:09.767Z,15.81
2022-09-10T21:01:38.024Z,15.85
2022-09-10T21:04:06.045Z,16.08
2022-09-10T21:06:35.284Z,16.21
2022-09-10T21:09:06.084Z,16.20
2022-09-10T21:11:35.639Z,16.08
2022-09-10T21:14:05.734Z,15.94
2022-09-10T21:16:35.320Z,16.08
2022-09-10T21:19:07.754Z,16.12
2022-09-10T21:21:36.512Z,15.99
2022-09-10T21:24:07.561Z,15.93
2022-09-10T21:26:37.584Z,16.07
2022-09-10T21:29:07.338Z,16.06
2022-09-10T21:31:36.039Z,15.86
2022-09-10T21:34:05.707Z,15.90
2022-09-10T21:36:34.701Z,15.96
2022-09-10T21:39:04.344Z,15.99
2022-09-10T21:41:35.630Z,16.09
2022-09-10T21:44:05.185Z,16.16
2022-09-10T21:46:34.357Z,16.38
2022-09-10T21:49:02.543Z,16.29
2022-09-10T21:51:31.016Z,16.18
2022-09-10T21:53:59.453Z,16.06
2022-09-10T21:56:29.573Z,16.04
2022-09-10T21:59:00.224Z,16.04
2022-09-10T22:01:29.617Z,16.04
2022-09-10T22:03:59.607Z,15.92
2022-09-10T22:06:28.679Z,15.90
2022-09-10T22:08:58.981Z,15.93
2022-09-10T22:11:30.535Z,16.09
2022-09-10T22:14:02.122Z,16.01
2022-09-10T22:16:31.396Z,16.02
2022-09-10T22:19:00.654Z,16.05
2022-09-10T22:21:29.121Z,15.89
2022-09-10T22:23:57.254Z,15.87
2022-09-10T22:26:31.039Z,15.89
2022-09-10T22:29:02.645Z,15.85
2022-09-10T22:31:32.381Z,15.91
2022-09-10T22:34:02.153Z,15.90
2022-09-10T22:36:35.429Z,15.95
2022-09-10T22:39:05.332Z,15.88
2022-09-10T22:41:35.201Z,16.00
2022-09-10T22:44:05.561Z,15.93
2022-09-10T22:46:34.804Z,16.06
2022-09-10T22:49:03.043Z,16.09
2022-09-10T22:51:34.271Z,16.01
2022-09-10T22:54:02.277Z,16.10
2022-09-10T22:56:30.420Z,16.20
2022-09-10T22:58:59.906Z,16.17
2022-09-10T23:01:31.084Z,16.15
2022-09-10T23:04:00.549Z,16.10
2022-09-10T23:06:30.144Z,16.04
2022-09-10T23:09:04.109Z,16.02
2022-09-10T23:11:33.513Z,16.10
2022-09-10T23:14:03.667Z,16.07
2022-09-10T23:16:34.651Z,16.16
2022-09-10T23:19:04.747Z,16.06
2022-09-10T23:21:34.262Z,16.08
2022-09-10T23:24:03.766Z,15.95
2022-09-10T23:26:32.020Z,15.98
2022-09-10T23:29:03.382Z,15.91
2022-09-10T23:31:33.893Z,15.88
2022-09-10T23:34:04.211Z,15.88
2022-09-10T23:36:34.257Z,15.99
2022-09-10T23:39:03.849Z,15.95
2022-09-10T23:41:32.025Z,15.99
2022-09-10T23:44:00.255Z,16.03
2022-09-10T23:46:28.303Z,15.96
2022-09-10T23:49:01.374Z,15.99
2022-09-10T23:51:29.559Z,15.96
2022-09-10T23:53:57.796Z,16.01
2022-09-10T23:56:26.908Z,16.05
2022-09-10T23:58:55.319Z,16.11
